Terminal Aerodrome Forecast
Issued by NWS Binghamton, NY

Home | Current Version | Previous Version | Text Only | Print | Product List | Glossary On
Versions: 1 2 3 4 5 6 7 8 9 10 11 12 13 14 15 16 17 18 19 20
000
FTUS41 KBGM 260800 AAA
TAFSYR
TAF AMD
KSYR 260835Z 2609/2706 00000KT P6SM FEW080 SCT250
     FM261400 22006KT P6SM BKN100
     FM261700 27009KT P6SM BKN060
     FM270000 17004KT P6SM SCT050 OVC120=

USA.gov is the U.S. government's official web portal to all federal, state and local government web resources and services.